Time;durP1;ratioP1;P1;durP2;ratioP2;P2;SDS_P1;SDS_P2;PMS_P1;PMS_P2;Temp;Humidity;BMP_temperature;BMP_pressure;BME280_temperature;BME280_humidity;BME280_pressure;Samples;Min_cycle;Max_cycle;Signal;HPM_P1;HPM_P2
2022/07/09 00:03:28;;;;;;;;;;;24.80;40.80;;;;;;8462919;28;19911;-44
2022/07/09 00:07:29;;;;;;;;;;;24.90;40.90;;;;;;8462760;28;19959;-43
2022/07/09 00:11:29;;;;;;;;;;;24.90;40.90;;;;;;8465700;28;19911;-43
2022/07/09 00:15:30;;;;;;;;;;;24.90;41.00;;;;;;8469414;28;19919;-43
2022/07/09 00:19:30;;;;;;;;;;;24.90;41.10;;;;;;8468791;28;19908;-43
2022/07/09 00:23:31;;;;;;;;;;;25.00;41.20;;;;;;8469107;28;20312;-43
2022/07/09 00:27:31;;;;;;;;;;;25.00;41.30;;;;;;8469289;28;19919;-43
2022/07/09 00:31:32;;;;;;;;;;;25.00;41.40;;;;;;8468447;28;20360;-43
2022/07/09 00:35:32;;;;;;;;;;;25.00;41.50;;;;;;8469129;28;19923;-41
2022/07/09 00:39:32;;;;;;;;;;;25.00;42.30;;;;;;8469012;28;19951;-41
2022/07/09 00:43:33;;;;;;;;;;;24.80;42.00;;;;;;8467898;28;20308;-42
2022/07/09 00:47:33;;;;;;;;;;;24.60;40.50;;;;;;8468324;28;19916;-43
2022/07/09 00:51:34;;;;;;;;;;;24.40;40.90;;;;;;8468171;28;19912;-43
2022/07/09 00:55:35;;;;;;;;;;;24.50;42.00;;;;;;8467945;28;20449;-42
2022/07/09 00:59:36;;;;;;;;;;;24.50;42.00;;;;;;8468261;28;19912;-42
2022/07/09 01:03:36;;;;;;;;;;;24.60;42.00;;;;;;8468035;28;20699;-42
2022/07/09 01:07:37;;;;;;;;;;;24.70;41.70;;;;;;8466158;28;19912;-42
2022/07/09 01:11:37;;;;;;;;;;;24.80;41.60;;;;;;8467402;28;20358;-42
2022/07/09 01:15:38;;;;;;;;;;;24.80;41.80;;;;;;8467343;28;20368;-42
2022/07/09 01:19:38;;;;;;;;;;;24.80;41.70;;;;;;8466793;28;19915;-43
2022/07/09 01:23:39;;;;;;;;;;;24.80;41.70;;;;;;8466174;28;19908;-43
2022/07/09 01:27:39;;;;;;;;;;;24.80;41.70;;;;;;8467359;28;20340;-42
2022/07/09 01:31:39;;;;;;;;;;;24.80;41.70;;;;;;8466298;28;19908;-42
2022/07/09 01:35:40;;;;;;;;;;;24.80;41.90;;;;;;8466742;28;20269;-42
2022/07/09 01:39:49;;;;;;;;;;;24.80;42.40;;;;;;8466908;28;19992;-42
2022/07/09 01:43:50;;;;;;;;;;;24.80;42.10;;;;;;8466154;28;19978;-41
2022/07/09 01:47:50;;;;;;;;;;;24.90;42.10;;;;;;8466572;28;19911;-42
2022/07/09 01:51:51;;;;;;;;;;;24.80;42.20;;;;;;8466111;28;19959;-42
2022/07/09 01:55:51;;;;;;;;;;;24.80;42.30;;;;;;8465730;28;19911;-42
2022/07/09 01:59:52;;;;;;;;;;;24.80;42.40;;;;;;8466051;28;20361;-42
2022/07/09 02:03:52;;;;;;;;;;;24.80;42.60;;;;;;8465979;28;19911;-42
2022/07/09 02:07:53;;;;;;;;;;;24.80;42.60;;;;;;8465402;28;19918;-42
2022/07/09 02:11:53;;;;;;;;;;;24.80;42.70;;;;;;8465622;28;20352;-43
2022/07/09 02:15:54;;;;;;;;;;;24.80;42.90;;;;;;8465421;28;19919;-43
2022/07/09 02:19:54;;;;;;;;;;;24.80;42.90;;;;;;8464891;28;20292;-42
2022/07/09 02:23:58;;;;;;;;;;;24.80;43.00;;;;;;8465393;28;19914;-42
2022/07/09 02:27:58;;;;;;;;;;;24.80;43.00;;;;;;8465224;28;20364;-42
2022/07/09 02:31:59;;;;;;;;;;;24.80;43.00;;;;;;8464335;28;19924;-42
2022/07/09 02:35:59;;;;;;;;;;;24.80;43.00;;;;;;8464988;28;19922;-42
2022/07/09 02:40:00;;;;;;;;;;;24.80;43.20;;;;;;8464709;28;19914;-42
2022/07/09 02:44:00;;;;;;;;;;;24.80;43.20;;;;;;8464069;28;19915;-42
2022/07/09 02:48:01;;;;;;;;;;;24.80;43.20;;;;;;8464581;28;20364;-42
2022/07/09 02:52:01;;;;;;;;;;;24.80;43.30;;;;;;8464280;28;20218;-42
2022/07/09 02:56:02;;;;;;;;;;;24.70;43.30;;;;;;8463822;28;19912;-43
2022/07/09 03:00:03;;;;;;;;;;;24.70;43.30;;;;;;8464401;28;19908;-43
2022/07/09 03:04:04;;;;;;;;;;;24.70;43.40;;;;;;8464249;28;19915;-44
2022/07/09 03:08:05;;;;;;;;;;;24.70;43.40;;;;;;8463366;28;19998;-42
2022/07/09 03:12:06;;;;;;;;;;;24.70;43.40;;;;;;8463926;28;20387;-43
2022/07/09 03:16:06;;;;;;;;;;;24.70;43.40;;;;;;8463828;28;19912;-42
2022/07/09 03:20:07;;;;;;;;;;;24.60;43.50;;;;;;8463226;28;19919;-43
2022/07/09 03:24:09;;;;;;;;;;;24.60;43.40;;;;;;8463768;28;20008;-42
2022/07/09 03:28:09;;;;;;;;;;;24.60;43.50;;;;;;8463617;28;20376;-43
2022/07/09 03:32:10;;;;;;;;;;;24.60;43.60;;;;;;8462842;28;20006;-42
2022/07/09 03:36:11;;;;;;;;;;;24.60;43.40;;;;;;8463120;28;19919;-42
2022/07/09 03:40:12;;;;;;;;;;;24.60;43.50;;;;;;8463060;28;19931;-43
2022/07/09 03:44:12;;;;;;;;;;;24.60;43.60;;;;;;8462596;28;19912;-43
2022/07/09 03:48:13;;;;;;;;;;;24.60;43.60;;;;;;8469073;28;20379;-42
2022/07/09 03:52:13;;;;;;;;;;;24.60;43.70;;;;;;8470008;28;20299;-42
2022/07/09 03:56:14;;;;;;;;;;;24.60;43.60;;;;;;8469260;28;19916;-42
2022/07/09 04:00:14;;;;;;;;;;;24.60;43.60;;;;;;8469821;28;19935;-42
2022/07/09 04:04:15;;;;;;;;;;;24.60;43.60;;;;;;8469878;28;19967;-43
2022/07/09 04:08:15;;;;;;;;;;;24.60;43.70;;;;;;8469014;28;20360;-43
2022/07/09 04:12:16;;;;;;;;;;;24.50;43.80;;;;;;8468310;28;19920;-43
2022/07/09 04:16:16;;;;;;;;;;;24.50;43.50;;;;;;8469178;28;19961;-43
2022/07/09 04:20:16;;;;;;;;;;;24.50;43.60;;;;;;8468507;28;19912;-43
2022/07/09 04:24:17;;;;;;;;;;;24.60;43.60;;;;;;8469222;28;20271;-43
2022/07/09 04:28:18;;;;;;;;;;;24.50;43.40;;;;;;8468955;28;19915;-42
2022/07/09 04:32:18;;;;;;;;;;;24.50;43.60;;;;;;8468224;28;19927;-42
2022/07/09 04:36:19;;;;;;;;;;;24.50;43.50;;;;;;8468787;28;19915;-42
2022/07/09 04:40:19;;;;;;;;;;;24.50;43.60;;;;;;8468596;28;19931;-43
2022/07/09 04:44:20;;;;;;;;;;;24.50;43.50;;;;;;8468167;28;19914;-42
2022/07/09 04:48:20;;;;;;;;;;;24.50;43.50;;;;;;8468004;28;20272;-42
2022/07/09 04:52:21;;;;;;;;;;;24.50;43.70;;;;;;8468030;28;19920;-42
2022/07/09 04:56:21;;;;;;;;;;;24.50;43.70;;;;;;8466802;28;20361;-41
2022/07/09 05:00:22;;;;;;;;;;;24.50;43.60;;;;;;8467150;28;19972;-41
2022/07/09 05:04:23;;;;;;;;;;;24.50;43.60;;;;;;8468107;28;19954;-42
2022/07/09 05:08:23;;;;;;;;;;;24.50;44.00;;;;;;8467495;28;19943;-41
2022/07/09 05:12:24;;;;;;;;;;;24.50;43.90;;;;;;8467159;28;19928;-41
2022/07/09 05:16:24;;;;;;;;;;;24.40;41.20;;;;;;8466835;28;19919;-42
2022/07/09 05:20:25;;;;;;;;;;;24.00;38.80;;;;;;8464415;28;19978;-42
2022/07/09 05:24:25;;;;;;;;;;;24.00;41.70;;;;;;8466602;28;19935;-43
2022/07/09 05:28:26;;;;;;;;;;;24.10;42.20;;;;;;8453276;28;19979;-43
2022/07/09 05:32:26;;;;;;;;;;;24.20;41.70;;;;;;8453174;28;20016;-43
2022/07/09 05:36:30;;;;;;;;;;;24.40;41.60;;;;;;8466806;27;19938;-41
2022/07/09 05:40:30;;;;;;;;;;;24.50;41.60;;;;;;8487529;27;19927;-40
2022/07/09 05:44:31;;;;;;;;;;;24.50;41.70;;;;;;8433316;28;19908;-41
2022/07/09 05:48:31;;;;;;;;;;;24.60;41.80;;;;;;8461197;28;19964;-41
2022/07/09 05:52:32;;;;;;;;;;;24.50;41.80;;;;;;8465454;28;20344;-40
2022/07/09 05:56:34;;;;;;;;;;;24.50;41.90;;;;;;8465605;28;19912;-41
2022/07/09 06:00:34;;;;;;;;;;;24.50;42.00;;;;;;8460184;28;19911;-41
2022/07/09 06:04:35;;;;;;;;;;;24.50;42.10;;;;;;8464928;28;19919;-41
2022/07/09 06:08:36;;;;;;;;;;;24.40;42.10;;;;;;8465320;28;19912;-41
2022/07/09 06:12:36;;;;;;;;;;;24.40;42.70;;;;;;8453291;28;19927;-42
2022/07/09 06:16:36;;;;;;;;;;;24.40;42.80;;;;;;8461670;28;20006;-41
2022/07/09 06:20:37;;;;;;;;;;;24.40;42.80;;;;;;8462315;28;19991;-39
2022/07/09 06:24:38;;;;;;;;;;;24.40;42.60;;;;;;8432215;28;19911;-41
2022/07/09 06:28:38;;;;;;;;;;;24.30;42.20;;;;;;8462207;28;19965;-41
2022/07/09 06:32:39;;;;;;;;;;;24.30;42.30;;;;;;8449012;28;20374;-41
2022/07/09 06:36:40;;;;;;;;;;;24.30;42.40;;;;;;8453496;28;19916;-41
2022/07/09 06:40:40;;;;;;;;;;;24.30;42.30;;;;;;8458223;28;19911;-43
2022/07/09 06:44:40;;;;;;;;;;;24.10;40.00;;;;;;8458497;28;19998;-40
2022/07/09 06:48:41;;;;;;;;;;;23.90;39.30;;;;;;8456453;27;19965;-41
2022/07/09 06:52:41;;;;;;;;;;;23.70;39.20;;;;;;8456800;28;19920;-41
2022/07/09 06:56:42;;;;;;;;;;;23.60;39.10;;;;;;8458327;28;19994;-42
2022/07/09 07:00:42;;;;;;;;;;;23.50;39.30;;;;;;8459361;27;19911;-43
2022/07/09 07:04:43;;;;;;;;;;;23.50;39.60;;;;;;8463473;28;20313;-44
2022/07/09 07:08:43;;;;;;;;;;;23.50;39.90;;;;;;8459720;28;19912;-41
2022/07/09 07:12:43;;;;;;;;;;;23.60;40.10;;;;;;8455708;28;19924;-41
2022/07/09 07:16:44;;;;;;;;;;;23.60;39.30;;;;;;8450426;28;20306;-42
2022/07/09 07:20:45;;;;;;;;;;;23.50;40.40;;;;;;8463270;28;19916;-42
2022/07/09 07:24:48;;;;;;;;;;;23.60;40.60;;;;;;8462704;28;19912;-42
2022/07/09 07:28:49;;;;;;;;;;;23.60;40.70;;;;;;8462317;28;20972;-42
2022/07/09 07:32:49;;;;;;;;;;;23.70;40.50;;;;;;8463226;28;19972;-42
2022/07/09 07:36:51;;;;;;;;;;;23.70;40.50;;;;;;8463253;28;19915;-42
2022/07/09 07:40:51;;;;;;;;;;;23.80;40.50;;;;;;8462955;28;20304;-41
2022/07/09 07:44:52;;;;;;;;;;;23.80;40.50;;;;;;8463088;28;19919;-42
2022/07/09 07:48:52;;;;;;;;;;;23.80;40.50;;;;;;8463102;28;19912;-41
2022/07/09 07:52:52;;;;;;;;;;;23.90;40.50;;;;;;8462396;28;19942;-42
2022/07/09 07:56:53;;;;;;;;;;;23.90;40.50;;;;;;8462746;28;19912;-43
2022/07/09 08:00:53;;;;;;;;;;;24.00;40.50;;;;;;8462964;28;19931;-44
2022/07/09 08:04:54;;;;;;;;;;;24.00;40.50;;;;;;8462130;28;19916;-42
2022/07/09 08:08:54;;;;;;;;;;;24.00;40.50;;;;;;8462756;28;19916;-42
2022/07/09 08:12:55;;;;;;;;;;;24.00;40.60;;;;;;8462414;28;20010;-43
2022/07/09 08:16:55;;;;;;;;;;;24.10;40.60;;;;;;8461925;28;20292;-43
2022/07/09 08:20:56;;;;;;;;;;;24.10;40.70;;;;;;8462750;28;19951;-42
2022/07/09 08:24:56;;;;;;;;;;;24.10;40.60;;;;;;8462540;28;19912;-42
2022/07/09 08:28:57;;;;;;;;;;;24.10;40.60;;;;;;8461835;28;20383;-42
2022/07/09 08:32:57;;;;;;;;;;;24.10;40.70;;;;;;8465865;28;19920;-42
2022/07/09 08:36:57;;;;;;;;;;;24.10;40.70;;;;;;8468622;28;19970;-43
2022/07/09 08:40:59;;;;;;;;;;;24.10;40.70;;;;;;8468247;28;19955;-42
2022/07/09 08:45:00;;;;;;;;;;;24.20;40.80;;;;;;8468617;28;20375;-42
2022/07/09 08:49:02;;;;;;;;;;;24.20;40.80;;;;;;8468336;28;19965;-42
2022/07/09 08:53:03;;;;;;;;;;;24.20;40.80;;;;;;8467294;28;19920;-43
2022/07/09 08:57:05;;;;;;;;;;;24.20;40.80;;;;;;8467625;28;19999;-42
2022/07/09 09:01:06;;;;;;;;;;;24.20;40.80;;;;;;8467848;28;19990;-43
2022/07/09 09:05:11;;;;;;;;;;;24.30;40.80;;;;;;8467027;28;19950;-42
2022/07/09 09:09:17;;;;;;;;;;;24.30;40.90;;;;;;8467543;28;19911;-43
2022/07/09 09:13:17;;;;;;;;;;;24.30;40.80;;;;;;8467211;28;20342;-43
2022/07/09 09:17:18;;;;;;;;;;;24.30;40.80;;;;;;8466784;28;19966;-43
2022/07/09 09:21:22;;;;;;;;;;;24.30;40.80;;;;;;8467326;28;19919;-43
2022/07/09 09:25:23;;;;;;;;;;;24.30;40.90;;;;;;8467168;28;19919;-42
2022/07/09 09:29:23;;;;;;;;;;;24.30;40.90;;;;;;8466454;28;19915;-42
2022/07/09 09:33:24;;;;;;;;;;;24.40;41.00;;;;;;8466756;28;19923;-43
2022/07/09 09:37:28;;;;;;;;;;;24.40;41.00;;;;;;8466398;28;20483;-43
2022/07/09 09:41:28;;;;;;;;;;;24.40;41.00;;;;;;8467086;28;20011;-43
2022/07/09 09:45:29;;;;;;;;;;;24.40;41.00;;;;;;8465958;28;20360;-41
2022/07/09 09:49:29;;;;;;;;;;;24.50;41.00;;;;;;8466392;28;19918;-42
2022/07/09 09:53:31;;;;;;;;;;;24.50;40.90;;;;;;8447937;28;19927;-43
2022/07/09 09:57:31;;;;;;;;;;;24.50;40.90;;;;;;8466161;28;20385;-42
2022/07/09 10:01:32;;;;;;;;;;;24.60;41.00;;;;;;8465790;28;19907;-43
2022/07/09 10:05:33;;;;;;;;;;;24.50;40.90;;;;;;8464730;28;19959;-43
2022/07/09 10:09:34;;;;;;;;;;;24.60;41.00;;;;;;8466042;28;19916;-44
2022/07/09 10:13:37;;;;;;;;;;;24.60;40.90;;;;;;8465021;28;19924;-44
2022/07/09 10:17:43;;;;;;;;;;;24.60;40.90;;;;;;8465426;28;19938;-42
2022/07/09 10:21:50;;;;;;;;;;;24.60;40.90;;;;;;8465746;28;19908;-43
2022/07/09 10:25:55;;;;;;;;;;;24.70;41.40;;;;;;8464772;28;19911;-43
2022/07/09 10:29:57;;;;;;;;;;;24.70;40.90;;;;;;8465119;28;19934;-43
2022/07/09 10:34:01;;;;;;;;;;;24.70;40.90;;;;;;8465128;28;19930;-42
2022/07/09 10:38:01;;;;;;;;;;;24.70;40.80;;;;;;8464418;28;20444;-42
2022/07/09 10:42:06;;;;;;;;;;;24.80;40.90;;;;;;8465290;28;19911;-42
2022/07/09 10:46:11;;;;;;;;;;;24.80;40.90;;;;;;8464598;28;19919;-42
2022/07/09 10:50:11;;;;;;;;;;;24.80;40.90;;;;;;8464108;28;19951;-43
2022/07/09 10:54:15;;;;;;;;;;;24.80;40.90;;;;;;8464041;28;19919;-43
2022/07/09 10:58:19;;;;;;;;;;;24.80;40.80;;;;;;8463833;28;20275;-43
2022/07/09 11:02:22;;;;;;;;;;;24.90;40.90;;;;;;8463698;28;19908;-43
2022/07/09 11:06:23;;;;;;;;;;;24.90;40.90;;;;;;8464481;28;19994;-43
2022/07/09 11:10:24;;;;;;;;;;;25.00;40.90;;;;;;8463914;28;19915;-41
2022/07/09 11:14:25;;;;;;;;;;;25.00;40.90;;;;;;8463806;28;19923;-41
2022/07/09 11:18:26;;;;;;;;;;;25.00;40.90;;;;;;8463756;28;19916;-42
2022/07/09 11:22:26;;;;;;;;;;;25.00;40.80;;;;;;8463162;28;19946;-41
2022/07/09 11:26:27;;;;;;;;;;;25.00;40.70;;;;;;8463761;28;19908;-43
2022/07/09 11:30:28;;;;;;;;;;;25.10;40.80;;;;;;8463694;28;19994;-42
2022/07/09 11:34:29;;;;;;;;;;;25.10;40.70;;;;;;8463242;28;19919;-43
2022/07/09 11:38:29;;;;;;;;;;;25.10;40.80;;;;;;8463704;28;19923;-43
2022/07/09 11:42:30;;;;;;;;;;;25.10;40.70;;;;;;8463575;28;19912;-42
2022/07/09 11:46:30;;;;;;;;;;;25.10;40.70;;;;;;8462838;28;20334;-43
2022/07/09 11:50:31;;;;;;;;;;;25.20;40.80;;;;;;8463256;28;20369;-43
2022/07/09 11:54:32;;;;;;;;;;;25.20;40.80;;;;;;8463210;28;20022;-42
2022/07/09 11:58:32;;;;;;;;;;;25.20;40.70;;;;;;8462606;28;20360;-43
2022/07/09 12:02:34;;;;;;;;;;;25.20;40.70;;;;;;8463593;28;20419;-42
2022/07/09 12:06:34;;;;;;;;;;;25.20;41.20;;;;;;8464554;28;19922;-43
2022/07/09 12:10:35;;;;;;;;;;;25.20;40.60;;;;;;8469113;28;19915;-43
2022/07/09 12:14:36;;;;;;;;;;;25.30;40.70;;;;;;8469853;28;19919;-42
2022/07/09 12:18:36;;;;;;;;;;;25.30;40.60;;;;;;8469271;28;20272;-41
2022/07/09 12:22:37;;;;;;;;;;;25.30;40.60;;;;;;8468955;28;20284;-42
2022/07/09 12:26:37;;;;;;;;;;;25.40;40.70;;;;;;8469063;28;19958;-43
2022/07/09 12:30:39;;;;;;;;;;;25.40;40.70;;;;;;8468972;28;20416;-42
2022/07/09 12:34:39;;;;;;;;;;;25.40;40.70;;;;;;8468555;28;20325;-44
2022/07/09 12:38:40;;;;;;;;;;;25.40;40.70;;;;;;8469030;28;19911;-44
2022/07/09 12:42:40;;;;;;;;;;;25.40;40.60;;;;;;8468897;28;19908;-43
2022/07/09 12:46:41;;;;;;;;;;;25.40;40.60;;;;;;8468130;28;19916;-42
2022/07/09 12:50:42;;;;;;;;;;;25.40;40.70;;;;;;8468613;28;19912;-42
2022/07/09 12:54:42;;;;;;;;;;;25.50;40.70;;;;;;8468202;28;20379;-43
2022/07/09 12:58:43;;;;;;;;;;;25.50;40.70;;;;;;8467675;28;19912;-43
2022/07/09 13:02:43;;;;;;;;;;;25.40;40.60;;;;;;8468247;28;20280;-42
2022/07/09 13:06:44;;;;;;;;;;;25.50;40.70;;;;;;8466876;28;20353;-42
2022/07/09 13:10:44;;;;;;;;;;;25.50;40.60;;;;;;8467341;28;19919;-42
2022/07/09 13:14:44;;;;;;;;;;;25.60;40.60;;;;;;8467642;28;19968;-43
2022/07/09 13:18:45;;;;;;;;;;;25.60;40.60;;;;;;8466363;28;19973;-43
2022/07/09 13:22:45;;;;;;;;;;;25.60;40.60;;;;;;8467219;28;20049;-43
2022/07/09 13:26:46;;;;;;;;;;;25.60;40.60;;;;;;8467278;28;19912;-42
2022/07/09 13:30:47;;;;;;;;;;;25.60;40.60;;;;;;8467082;28;19911;-43
2022/07/09 13:34:47;;;;;;;;;;;25.60;40.60;;;;;;8466633;28;19955;-42
2022/07/09 13:38:48;;;;;;;;;;;25.70;40.70;;;;;;8467226;28;19915;-43
2022/07/09 13:42:48;;;;;;;;;;;25.60;40.60;;;;;;8467123;28;19912;-43
2022/07/09 13:46:49;;;;;;;;;;;25.70;40.60;;;;;;8466038;28;19990;-43
2022/07/09 13:50:49;;;;;;;;;;;25.70;40.60;;;;;;8466738;28;19919;-43
2022/07/09 13:54:50;;;;;;;;;;;25.70;40.60;;;;;;8466309;28;19922;-44
2022/07/09 13:58:50;;;;;;;;;;;25.70;40.70;;;;;;8465839;28;19918;-43
2022/07/09 14:02:51;;;;;;;;;;;25.70;40.60;;;;;;8466646;28;19914;-43
2022/07/09 14:06:51;;;;;;;;;;;25.70;40.60;;;;;;8465949;28;19919;-44
2022/07/09 14:10:57;;;;;;;;;;;25.70;40.60;;;;;;8465345;28;20341;-44
2022/07/09 14:14:59;;;;;;;;;;;25.70;40.60;;;;;;8465627;28;19922;-44
2022/07/09 14:18:59;;;;;;;;;;;25.70;40.60;;;;;;8465790;28;19922;-44
2022/07/09 14:23:00;;;;;;;;;;;25.80;40.70;;;;;;8465281;28;19911;-44
2022/07/09 14:27:00;;;;;;;;;;;25.80;40.60;;;;;;8465301;28;19951;-43
2022/07/09 14:31:01;;;;;;;;;;;25.80;40.60;;;;;;8465083;28;20280;-43
2022/07/09 14:35:01;;;;;;;;;;;25.80;40.60;;;;;;8464724;28;20335;-43
2022/07/09 14:39:02;;;;;;;;;;;25.90;40.60;;;;;;8465304;28;19916;-42
2022/07/09 14:43:03;;;;;;;;;;;25.80;40.60;;;;;;8465103;28;19912;-44
2022/07/09 14:47:04;;;;;;;;;;;25.90;40.60;;;;;;8464741;28;19911;-43
2022/07/09 14:51:04;;;;;;;;;;;25.90;40.60;;;;;;8464510;28;19919;-43
2022/07/09 14:55:05;;;;;;;;;;;25.90;40.60;;;;;;8464440;28;20440;-42
2022/07/09 14:59:05;;;;;;;;;;;25.90;40.60;;;;;;8464024;28;20292;-42
2022/07/09 15:03:06;;;;;;;;;;;25.90;40.60;;;;;;8464437;28;19913;-42
2022/07/09 15:07:06;;;;;;;;;;;25.90;40.50;;;;;;8464288;28;20003;-43
2022/07/09 15:11:07;;;;;;;;;;;25.90;40.50;;;;;;8463583;28;19911;-43
2022/07/09 15:15:07;;;;;;;;;;;26.00;40.60;;;;;;8463756;28;19920;-42
2022/07/09 15:19:08;;;;;;;;;;;25.90;40.60;;;;;;8463860;28;19961;-43
2022/07/09 15:23:08;;;;;;;;;;;25.90;40.50;;;;;;8463656;28;19918;-43
2022/07/09 15:27:09;;;;;;;;;;;26.00;40.60;;;;;;8463788;28;19923;-42
2022/07/09 15:31:09;;;;;;;;;;;26.00;40.60;;;;;;8463649;28;19954;-43
2022/07/09 15:35:11;;;;;;;;;;;26.00;40.60;;;;;;8463062;28;20440;-43
2022/07/09 15:39:12;;;;;;;;;;;26.00;40.60;;;;;;8463497;28;19907;-43
2022/07/09 15:43:12;;;;;;;;;;;26.00;40.60;;;;;;8471654;28;19964;-42
2022/07/09 15:47:13;;;;;;;;;;;26.00;40.60;;;;;;8474210;28;19912;-43
2022/07/09 15:51:13;;;;;;;;;;;26.00;40.50;;;;;;8474615;28;19933;-43
2022/07/09 15:55:14;;;;;;;;;;;26.00;40.50;;;;;;8474681;28;19922;-43
2022/07/09 15:59:15;;;;;;;;;;;26.00;40.60;;;;;;8474237;28;20445;-43
2022/07/09 16:03:15;;;;;;;;;;;26.00;40.60;;;;;;8474591;28;19923;-43
2022/07/09 16:07:16;;;;;;;;;;;26.00;40.60;;;;;;8473238;28;19981;-43
2022/07/09 16:15:36;;;;;;;;;;;26.00;40.50;;;;;;8478855;28;19927;-43
2022/07/09 16:19:36;;;;;;;;;;;26.00;40.60;;;;;;8473731;28;19911;-42
2022/07/09 16:23:37;;;;;;;;;;;26.00;40.60;;;;;;8474561;28;19998;-43
2022/07/09 16:27:39;;;;;;;;;;;26.00;40.60;;;;;;8474035;28;19911;-46
2022/07/09 16:31:40;;;;;;;;;;;26.00;40.60;;;;;;8473575;28;19907;-42
2022/07/09 16:35:40;;;;;;;;;;;26.00;40.60;;;;;;8474088;28;19924;-42
2022/07/09 16:39:41;;;;;;;;;;;26.00;40.60;;;;;;8473923;28;19945;-42
2022/07/09 16:43:42;;;;;;;;;;;26.00;40.60;;;;;;8473656;28;19912;-42
2022/07/09 16:47:42;;;;;;;;;;;26.00;40.60;;;;;;8473796;28;19955;-45
2022/07/09 16:51:43;;;;;;;;;;;26.00;40.60;;;;;;8473688;28;19918;-44
2022/07/09 16:55:43;;;;;;;;;;;26.00;40.70;;;;;;8468050;28;20343;-43
2022/07/09 16:59:44;;;;;;;;;;;26.00;40.70;;;;;;8468294;28;19994;-43
2022/07/09 17:03:44;;;;;;;;;;;26.00;40.70;;;;;;8468492;28;20384;-43
2022/07/09 17:07:44;;;;;;;;;;;25.90;40.70;;;;;;8467572;28;19992;-43
2022/07/09 17:11:45;;;;;;;;;;;25.90;40.70;;;;;;8467912;28;19965;-43
2022/07/09 17:15:45;;;;;;;;;;;25.90;40.70;;;;;;8467654;28;19926;-43
2022/07/09 17:19:46;;;;;;;;;;;25.90;40.70;;;;;;8467646;28;19956;-43
2022/07/09 17:23:46;;;;;;;;;;;25.90;40.70;;;;;;8467525;28;19956;-42
2022/07/09 17:27:47;;;;;;;;;;;25.90;40.80;;;;;;8467480;28;20330;-43
2022/07/09 17:31:48;;;;;;;;;;;25.90;40.80;;;;;;8466729;28;19916;-43
2022/07/09 17:35:50;;;;;;;;;;;25.90;40.80;;;;;;8466800;28;20359;-43
2022/07/09 17:39:50;;;;;;;;;;;25.90;40.80;;;;;;8467306;28;19911;-43
2022/07/09 17:43:52;;;;;;;;;;;25.90;40.80;;;;;;8466492;28;19957;-43
2022/07/09 17:47:52;;;;;;;;;;;25.90;40.80;;;;;;8466687;28;19964;-43
2022/07/09 17:51:53;;;;;;;;;;;25.90;40.80;;;;;;8466609;28;19939;-44
2022/07/09 17:55:53;;;;;;;;;;;25.90;40.80;;;;;;8465916;28;20342;-43
2022/07/09 17:59:53;;;;;;;;;;;25.90;40.80;;;;;;8466574;28;20383;-43
2022/07/09 18:03:54;;;;;;;;;;;25.90;40.90;;;;;;8465870;28;19998;-44
2022/07/09 18:07:54;;;;;;;;;;;25.90;40.80;;;;;;8465652;28;19911;-44
2022/07/09 18:11:55;;;;;;;;;;;25.90;40.80;;;;;;8466292;28;19922;-42
2022/07/09 18:15:55;;;;;;;;;;;25.90;40.80;;;;;;8465989;28;19919;-43
2022/07/09 18:19:56;;;;;;;;;;;25.90;40.80;;;;;;8465549;28;19912;-43
2022/07/09 18:23:56;;;;;;;;;;;25.90;40.80;;;;;;8465519;28;19997;-43
2022/07/09 18:27:57;;;;;;;;;;;25.90;40.80;;;;;;8464524;28;20261;-42
2022/07/09 18:31:57;;;;;;;;;;;25.90;40.70;;;;;;8464835;28;19919;-42
2022/07/09 18:35:58;;;;;;;;;;;25.90;40.80;;;;;;8465146;28;19973;-43
2022/07/09 18:39:58;;;;;;;;;;;25.90;40.80;;;;;;8465299;28;19907;-43
2022/07/09 18:43:58;;;;;;;;;;;25.90;40.80;;;;;;8464524;28;20318;-43
2022/07/09 18:47:59;;;;;;;;;;;25.90;40.80;;;;;;8464686;28;20395;-44
2022/07/09 18:52:00;;;;;;;;;;;25.90;41.40;;;;;;8446588;28;19912;-44
2022/07/09 18:56:00;;;;;;;;;;;25.90;40.80;;;;;;8464013;28;19926;-44
2022/07/09 19:00:07;;;;;;;;;;;25.90;40.80;;;;;;8464954;28;19942;-44
2022/07/09 19:04:08;;;;;;;;;;;25.90;40.80;;;;;;8464520;28;19912;-44
2022/07/09 19:08:08;;;;;;;;;;;25.90;40.80;;;;;;8463826;28;20364;-43
2022/07/09 19:12:08;;;;;;;;;;;25.90;40.80;;;;;;8462879;28;20411;-43
2022/07/09 19:16:09;;;;;;;;;;;25.90;40.90;;;;;;8463164;28;19961;-43
2022/07/09 19:20:13;;;;;;;;;;;25.90;40.90;;;;;;8463682;28;19912;-43
2022/07/09 19:24:16;;;;;;;;;;;25.80;40.90;;;;;;8464205;28;19912;-44
2022/07/09 19:28:17;;;;;;;;;;;25.80;40.90;;;;;;8463614;28;19953;-44
2022/07/09 19:36:45;;;;;;;;;;;25.80;40.90;;;;;;8466550;28;19926;-43
2022/07/09 19:40:45;;;;;;;;;;;25.80;40.90;;;;;;8463134;28;19911;-44
2022/07/09 19:44:46;;;;;;;;;;;25.80;40.90;;;;;;8463658;28;19990;-44
2022/07/09 19:48:50;;;;;;;;;;;25.80;40.90;;;;;;8445048;28;19912;-43
2022/07/09 19:52:51;;;;;;;;;;;25.80;40.90;;;;;;8463318;28;19919;-43
2022/07/09 19:56:52;;;;;;;;;;;25.80;40.90;;;;;;8463348;28;19912;-43
2022/07/09 20:00:52;;;;;;;;;;;25.80;40.90;;;;;;8463416;28;19915;-44
2022/07/09 20:04:52;;;;;;;;;;;25.80;41.00;;;;;;8462909;28;19908;-43
2022/07/09 20:08:54;;;;;;;;;;;25.80;41.00;;;;;;8463073;28;20407;-44
2022/07/09 20:12:55;;;;;;;;;;;25.80;41.00;;;;;;8445049;28;20269;-44
2022/07/09 20:16:55;;;;;;;;;;;25.80;41.00;;;;;;8462451;28;19991;-45
2022/07/09 20:20:55;;;;;;;;;;;25.70;40.90;;;;;;8463196;28;19912;-43
2022/07/09 20:24:56;;;;;;;;;;;25.70;41.00;;;;;;8463010;28;19912;-43
2022/07/09 20:28:57;;;;;;;;;;;25.70;41.00;;;;;;8447719;28;19912;-43
2022/07/09 20:32:57;;;;;;;;;;;25.70;41.00;;;;;;8468983;28;19927;-43
2022/07/09 20:36:59;;;;;;;;;;;25.70;41.00;;;;;;8468854;28;19966;-43
2022/07/09 20:40:59;;;;;;;;;;;25.70;41.00;;;;;;8468593;28;19914;-44
2022/07/09 20:44:59;;;;;;;;;;;25.70;40.90;;;;;;8468658;28;20383;-43
2022/07/09 20:49:00;;;;;;;;;;;25.60;40.90;;;;;;8468786;28;19912;-44
2022/07/09 20:53:03;;;;;;;;;;;25.70;40.90;;;;;;8467930;28;19920;-43
2022/07/09 20:57:04;;;;;;;;;;;25.70;41.00;;;;;;8468200;28;19911;-44
2022/07/09 21:01:04;;;;;;;;;;;25.60;40.90;;;;;;8450123;28;20276;-43
2022/07/09 21:05:06;;;;;;;;;;;25.70;41.00;;;;;;8467626;28;19923;-44
2022/07/09 21:09:07;;;;;;;;;;;25.60;40.90;;;;;;8468234;28;20420;-43
2022/07/09 21:13:07;;;;;;;;;;;25.60;40.90;;;;;;8449515;28;19919;-44
2022/07/09 21:21:27;;;;;;;;;;;25.60;40.90;;;;;;8467933;28;19953;-44
2022/07/09 21:25:27;;;;;;;;;;;25.60;40.90;;;;;;8467275;28;19908;-43
2022/07/09 21:29:27;;;;;;;;;;;25.60;40.90;;;;;;8467289;28;19919;-44
2022/07/09 21:33:28;;;;;;;;;;;25.60;40.90;;;;;;8467013;28;19988;-44
2022/07/09 21:37:28;;;;;;;;;;;25.60;40.90;;;;;;8466409;28;19916;-43
2022/07/09 21:41:29;;;;;;;;;;;25.60;40.90;;;;;;8466292;28;20014;-44
2022/07/09 21:45:29;;;;;;;;;;;25.60;40.90;;;;;;8466782;28;19919;-44
2022/07/09 21:49:30;;;;;;;;;;;25.60;40.90;;;;;;8466232;28;20002;-45
2022/07/09 21:53:30;;;;;;;;;;;25.60;41.00;;;;;;8466400;28;19920;-43
2022/07/09 21:57:31;;;;;;;;;;;25.60;40.90;;;;;;8466315;28;19915;-44
2022/07/09 22:01:32;;;;;;;;;;;25.50;40.90;;;;;;8465031;28;20357;-44
2022/07/09 22:05:32;;;;;;;;;;;25.50;40.90;;;;;;8466066;28;19919;-44
2022/07/09 22:09:33;;;;;;;;;;;25.50;40.90;;;;;;8465246;28;19911;-43
2022/07/09 22:13:33;;;;;;;;;;;25.50;40.90;;;;;;8465360;28;19919;-44
2022/07/09 22:17:33;;;;;;;;;;;25.60;41.00;;;;;;8465626;28;20347;-43
2022/07/09 22:21:34;;;;;;;;;;;25.50;40.90;;;;;;8465874;28;19911;-44
2022/07/09 22:25:34;;;;;;;;;;;25.50;40.90;;;;;;8464947;28;19912;-43
2022/07/09 22:29:35;;;;;;;;;;;25.50;40.90;;;;;;8465235;28;19992;-43
2022/07/09 22:33:35;;;;;;;;;;;25.50;40.90;;;;;;8465003;28;19924;-43
2022/07/09 22:37:36;;;;;;;;;;;25.50;40.90;;;;;;8464355;28;19920;-43
2022/07/09 22:41:36;;;;;;;;;;;25.50;41.00;;;;;;8464951;28;20103;-42
2022/07/09 22:45:37;;;;;;;;;;;25.50;41.00;;;;;;8464791;28;19934;-41
2022/07/09 22:49:37;;;;;;;;;;;25.50;41.00;;;;;;8464198;28;19911;-42
2022/07/09 22:53:38;;;;;;;;;;;25.40;40.90;;;;;;8464407;28;20300;-43
2022/07/09 22:57:38;;;;;;;;;;;25.40;40.90;;;;;;8464502;28;19912;-43
2022/07/09 23:01:39;;;;;;;;;;;25.40;40.90;;;;;;8464077;28;19908;-43
2022/07/09 23:05:39;;;;;;;;;;;25.40;40.90;;;;;;8464464;28;19919;-43
2022/07/09 23:09:40;;;;;;;;;;;25.40;41.00;;;;;;8464205;28;19956;-43
2022/07/09 23:13:40;;;;;;;;;;;25.40;40.90;;;;;;8463480;28;19920;-41
2022/07/09 23:17:41;;;;;;;;;;;25.40;40.90;;;;;;8463918;28;19912;-43
2022/07/09 23:21:41;;;;;;;;;;;25.40;41.00;;;;;;8464016;28;19907;-43
2022/07/09 23:25:42;;;;;;;;;;;25.40;40.90;;;;;;8463417;28;19964;-43
2022/07/09 23:29:42;;;;;;;;;;;25.40;41.00;;;;;;8464041;28;19918;-43
2022/07/09 23:33:43;;;;;;;;;;;25.40;41.00;;;;;;8463443;28;20364;-43